Time;durP1;ratioP1;P1;durP2;ratioP2;P2;SDS_P1;SDS_P2;PMS_P1;PMS_P2;Temp;Humidity;BMP_temperature;BMP_pressure;BME280_temperature;BME280_humidity;BME280_pressure;Samples;Min_cycle;Max_cycle;Signal;HPM_P1;HPM_P2
2022/03/11 00:03:01;;;;;;;3.70;2.53;;;;;;;5.14;45.50;99505.25;8272130;28;20054;-71
2022/03/11 00:07:03;;;;;;;2.43;2.20;;;;;;;4.91;47.08;99505.66;8303846;28;20502;-71
2022/03/11 00:11:05;;;;;;;9.40;3.10;;;;;;;4.76;46.09;99504.50;8284127;28;20128;-72
2022/03/11 00:15:07;;;;;;;3.40;2.13;;;;;;;4.55;48.33;99507.50;8296937;28;20053;-72
2022/03/11 00:19:08;;;;;;;2.55;2.03;;;;;;;4.36;49.67;99507.94;8299801;28;20059;-71
2022/03/11 00:23:10;;;;;;;5.50;2.10;;;;;;;4.15;50.32;99505.75;8296378;28;20065;-72
2022/03/11 00:27:11;;;;;;;3.30;2.03;;;;;;;3.93;51.82;99504.38;8299227;28;20063;-72
2022/03/11 00:31:13;;;;;;;3.97;2.13;;;;;;;3.73;53.56;99497.03;8291281;28;20072;-72
2022/03/11 00:35:14;;;;;;;2.43;2.17;;;;;;;3.53;54.70;99502.53;8637699;23;20060;-72
2022/03/11 00:39:16;;;;;;;2.70;1.90;;;;;;;3.29;55.73;99500.22;8375495;28;20067;-72
2022/03/11 00:43:18;;;;;;;2.40;2.00;;;;;;;3.09;56.45;99503.09;8372773;28;20044;-72
2022/03/11 00:47:19;;;;;;;3.42;2.67;;;;;;;2.87;57.16;99505.06;8367082;28;20519;-72
2022/03/11 00:51:21;;;;;;;2.43;2.23;;;;;;;2.73;57.87;99503.81;8362462;28;20056;-72
2022/03/11 00:55:22;;;;;;;3.50;2.30;;;;;;;2.52;58.59;99504.06;8371326;28;20045;-72
2022/03/11 00:59:24;;;;;;;3.33;2.63;;;;;;;2.37;58.90;99506.16;8376621;28;20048;-72
2022/03/11 01:03:25;;;;;;;3.10;2.40;;;;;;;2.20;59.52;99513.31;8367365;28;20135;-72
2022/03/11 01:07:26;;;;;;;4.47;3.10;;;;;;;2.08;59.77;99505.25;8368476;28;20052;-72
2022/03/11 01:11:28;;;;;;;7.17;2.93;;;;;;;1.94;60.66;99501.38;8358393;28;20330;-71
2022/03/11 01:15:29;;;;;;;3.43;2.57;;;;;;;1.75;60.97;99493.13;8358501;28;20056;-72
2022/03/11 01:19:31;;;;;;;3.47;2.73;;;;;;;1.63;61.41;99497.88;8328438;28;20237;-72
2022/03/11 01:23:32;;;;;;;5.20;2.70;;;;;;;1.57;61.86;99489.97;8330744;28;20049;-72
2022/03/11 01:27:34;;;;;;;6.97;2.87;;;;;;;1.47;62.04;99486.25;8327517;28;20053;-72
2022/03/11 01:31:35;;;;;;;2.33;2.13;;;;;;;1.36;63.26;99492.69;8334780;28;20048;-72
2022/03/11 01:35:37;;;;;;;4.30;2.70;;;;;;;1.22;63.38;99481.13;8360901;28;20635;-72
2022/03/11 01:39:39;;;;;;;3.50;2.33;;;;;;;1.15;63.79;99485.16;8362045;28;20055;-72
2022/03/11 01:44:09;;;;;;;4.77;2.57;;;;;;;1.07;64.31;99484.00;8361254;28;20071;-72
2022/03/11 01:48:11;;;;;;;6.87;2.83;;;;;;;1.00;65.28;99487.19;8345309;28;20128;-72
2022/03/11 01:52:13;;;;;;;5.95;2.90;;;;;;;0.92;65.46;99480.09;8344972;28;20407;-72
2022/03/11 01:56:14;;;;;;;6.57;2.80;;;;;;;0.84;65.39;99482.34;8342572;28;20135;-71
2022/03/11 02:00:17;;;;;;;4.45;2.55;;;;;;;0.74;65.53;99483.72;8357238;28;20058;-72
2022/03/11 02:04:18;;;;;;;4.35;3.33;;;;;;;0.66;66.06;99480.00;8342661;28;20140;-72
2022/03/11 02:08:20;;;;;;;4.37;2.33;;;;;;;0.59;66.11;99478.06;8360202;28;20053;-72
2022/03/11 02:12:28;;;;;;;3.53;2.30;;;;;;;0.50;65.80;99483.69;8360384;28;20052;-72
2022/03/11 02:16:32;;;;;;;5.73;2.53;;;;;;;0.41;66.37;99478.25;8356489;28;20363;-71
2022/03/11 02:20:34;;;;;;;3.27;2.33;;;;;;;0.39;66.93;99472.22;8358393;28;20163;-72
2022/03/11 02:24:36;;;;;;;6.40;2.47;;;;;;;0.37;66.71;99462.75;8358528;28;20048;-72
2022/03/11 02:28:38;;;;;;;3.27;2.37;;;;;;;0.29;66.99;99458.22;8358738;28;20054;-72
2022/03/11 02:32:40;;;;;;;5.35;2.65;;;;;;;0.23;67.20;99462.25;8338707;28;20052;-72
2022/03/11 02:36:41;;;;;;;3.20;2.38;;;;;;;0.19;67.34;99455.28;8358320;28;20060;-72
2022/03/11 02:40:43;;;;;;;2.63;1.93;;;;;;;0.15;67.27;99451.72;8359205;28;20346;-72
2022/03/11 02:44:44;;;;;;;3.37;2.23;;;;;;;0.08;67.48;99452.31;8360029;28;20044;-72
2022/03/11 02:48:46;;;;;;;2.47;2.07;;;;;;;0.05;67.79;99449.66;8356680;28;20053;-72
2022/03/11 02:52:47;;;;;;;2.97;2.67;;;;;;;0.04;68.45;99452.16;8359298;28;20067;-72
2022/03/11 02:56:49;;;;;;;3.23;2.50;;;;;;;0.05;68.59;99454.75;8357922;28;20053;-72
2022/03/11 03:00:50;;;;;;;3.53;2.10;;;;;;;0.01;68.35;99452.91;8347728;28;20068;-72
2022/03/11 03:04:52;;;;;;;4.77;2.70;;;;;;;0.02;68.45;99456.34;8363061;28;20049;-72
2022/03/11 03:08:54;;;;;;;3.97;2.50;;;;;;;0.00;68.49;99453.72;8351118;28;20056;-72
2022/03/11 03:12:55;;;;;;;3.17;2.17;;;;;;;0.02;68.24;99461.44;8364306;28;20051;-72
2022/03/11 03:16:57;;;;;;;2.83;1.97;;;;;;;0.07;67.95;99455.69;8360997;28;20063;-72
2022/03/11 03:20:58;;;;;;;3.63;2.63;;;;;;;0.11;67.16;99454.13;8364228;28;20103;-72
2022/03/11 03:25:00;;;;;;;3.70;2.33;;;;;;;0.20;65.66;99457.03;8362162;28;20139;-72
2022/03/11 03:29:02;;;;;;;4.32;2.53;;;;;;;0.26;65.47;99458.13;8364678;28;20061;-72
2022/03/11 03:33:03;;;;;;;3.83;2.37;;;;;;;0.20;66.99;99454.47;8363287;28;21588;-72
2022/03/11 03:37:08;;;;;;;3.17;2.40;;;;;;;0.18;66.82;99445.84;8369880;28;20080;-72
2022/03/11 03:41:09;;;;;;;4.83;2.20;;;;;;;0.16;66.98;99452.59;8369730;28;20048;-72
2022/03/11 03:45:11;;;;;;;2.30;2.10;;;;;;;0.11;66.78;99454.13;8365558;28;20163;-72
2022/03/11 03:49:13;;;;;;;3.93;2.60;;;;;;;0.05;67.35;99447.09;8370054;28;20056;-72
2022/03/11 03:53:14;;;;;;;4.88;2.53;;;;;;;0.02;66.85;99446.13;8368689;28;20326;-72
2022/03/11 03:57:16;;;;;;;4.77;2.80;;;;;;;0.04;66.56;99452.16;8364722;28;20601;-72
2022/03/11 04:01:17;;;;;;;3.00;2.10;;;;;;;0.06;66.45;99450.53;8363728;28;20077;-72
2022/03/11 04:05:20;;;;;;;4.25;2.38;;;;;;;0.15;65.39;99446.63;8349558;28;20049;-72
2022/03/11 04:09:21;;;;;;;3.80;2.65;;;;;;;0.29;64.00;99448.00;8355185;28;20053;-72
2022/03/11 04:13:23;;;;;;;5.50;2.50;;;;;;;0.51;62.68;99449.66;8364890;28;20058;-72
2022/03/11 04:17:25;;;;;;;3.97;2.20;;;;;;;0.69;61.22;99456.25;8362049;28;20070;-72
2022/03/11 04:21:26;;;;;;;2.33;2.03;;;;;;;0.77;61.00;99442.06;8350937;28;20069;-72
2022/03/11 04:25:28;;;;;;;3.37;1.83;;;;;;;0.79;61.19;99446.41;8332991;28;20159;-72
2022/03/11 04:29:29;;;;;;;6.83;2.30;;;;;;;0.81;61.34;99437.13;8355861;28;20053;-72
2022/03/11 04:33:31;;;;;;;2.97;2.20;;;;;;;0.90;60.06;99451.91;8353895;28;20040;-72
2022/03/11 04:37:33;;;;;;;5.53;2.77;;;;;;;0.92;59.86;99446.84;8354053;28;20056;-71
2022/03/11 04:41:35;;;;;;;4.77;2.47;;;;;;;0.99;59.42;99442.00;8355890;28;20055;-72
2022/03/11 04:45:37;;;;;;;2.73;2.23;;;;;;;1.05;59.57;99446.44;8350562;28;20353;-72
2022/03/11 04:49:39;;;;;;;4.37;2.50;;;;;;;1.15;58.52;99440.81;8358202;28;20045;-72
2022/03/11 04:53:41;;;;;;;2.55;1.98;;;;;;;1.22;58.53;99447.88;8364332;28;20128;-72
2022/03/11 04:57:42;;;;;;;3.50;2.20;;;;;;;1.24;58.75;99445.38;8362646;28;20461;-72
2022/03/11 05:01:44;;;;;;;3.23;2.60;;;;;;;1.27;58.12;99438.69;8358868;28;20064;-72
2022/03/11 05:05:45;;;;;;;2.77;2.00;;;;;;;1.39;57.45;99433.97;8363209;28;20055;-72
2022/03/11 05:09:47;;;;;;;3.07;2.53;;;;;;;1.54;57.00;99443.81;8363392;28;20071;-72
2022/03/11 05:13:48;;;;;;;3.00;2.60;;;;;;;1.63;55.95;99438.16;8361307;28;20040;-72
2022/03/11 05:17:51;;;;;;;4.13;2.40;;;;;;;1.73;55.96;99438.47;8361231;28;20056;-72
2022/03/11 05:21:52;;;;;;;5.53;2.08;;;;;;;1.84;56.08;99443.94;8363941;28;20142;-71
2022/03/11 05:25:54;;;;;;;2.47;2.20;;;;;;;1.90;55.62;99443.25;8365445;28;20057;-72
2022/03/11 05:29:55;;;;;;;3.90;2.53;;;;;;;1.98;54.93;99446.91;8364249;28;20425;-72
2022/03/11 05:33:57;;;;;;;3.03;2.47;;;;;;;2.00;54.75;99452.94;8361836;28;20397;-72
2022/03/11 05:37:59;;;;;;;2.77;2.30;;;;;;;1.98;55.24;99447.78;8363258;28;20071;-72
2022/03/11 05:42:00;;;;;;;3.67;2.47;;;;;;;2.01;55.36;99447.88;8347050;28;20049;-71
2022/03/11 05:46:03;;;;;;;4.93;2.67;;;;;;;2.07;54.66;99450.59;8358951;28;20068;-72
2022/03/11 05:50:06;;;;;;;2.87;2.40;;;;;;;2.17;54.63;99451.78;8357719;28;20137;-72
2022/03/11 05:54:08;;;;;;;3.65;2.50;;;;;;;2.25;55.15;99451.97;8362232;28;20056;-72
2022/03/11 05:58:09;;;;;;;4.10;3.00;;;;;;;2.36;54.51;99450.63;8356937;28;20049;-72
2022/03/11 06:02:11;;;;;;;3.00;2.53;;;;;;;2.42;54.20;99445.66;8364046;28;20167;-72
2022/03/11 06:06:14;;;;;;;4.82;2.72;;;;;;;2.49;54.58;99451.81;8360783;28;20451;-72
2022/03/11 06:10:15;;;;;;;5.53;2.67;;;;;;;2.54;54.18;99457.97;8360699;28;20049;-72
2022/03/11 06:14:17;;;;;;;3.30;2.57;;;;;;;2.57;54.28;99440.09;8350485;28;20127;-72
2022/03/11 06:18:18;;;;;;;5.93;2.60;;;;;;;2.64;54.29;99440.31;8360680;28;20056;-72
2022/03/11 06:22:20;;;;;;;4.57;3.23;;;;;;;2.70;54.65;99437.94;8368089;28;20052;-72
2022/03/11 06:26:21;;;;;;;6.27;3.07;;;;;;;2.78;53.80;99434.69;8360997;28;20044;-72
2022/03/11 06:30:22;;;;;;;4.03;2.73;;;;;;;2.82;54.17;99437.38;8356770;28;20063;-72
2022/03/11 06:34:24;;;;;;;7.37;3.37;;;;;;;2.88;54.09;99437.56;8345893;28;20057;-72
2022/03/11 06:38:25;;;;;;;6.33;3.53;;;;;;;2.96;54.28;99445.44;8339392;28;20052;-72
2022/03/11 06:42:44;;;;;;;5.57;3.33;;;;;;;3.05;53.92;99450.81;8359574;28;20118;-73
2022/03/11 06:46:45;;;;;;;4.63;3.17;;;;;;;3.13;54.00;99448.47;8356825;28;20127;-72
2022/03/11 06:50:47;;;;;;;5.57;3.70;;;;;;;3.23;53.89;99448.75;8341383;28;20831;-72
2022/03/11 06:54:49;;;;;;;5.32;3.33;;;;;;;3.38;53.46;99448.25;8346972;28;20058;-71
2022/03/11 06:58:51;;;;;;;5.70;3.47;;;;;;;3.53;53.46;99452.88;8362751;28;20053;-72
2022/03/11 07:02:53;;;;;;;7.28;3.17;;;;;;;3.65;52.83;99448.06;8354723;28;20056;-71
2022/03/11 07:06:54;;;;;;;6.70;3.40;;;;;;;3.79;52.75;99443.25;8358636;28;20143;-71
2022/03/11 07:10:56;;;;;;;4.37;3.50;;;;;;;4.08;52.08;99444.78;8358167;28;20059;-71
2022/03/11 07:15:01;;;;;;;5.57;3.23;;;;;;;4.47;51.39;99447.31;8360302;28;20358;-71
2022/03/11 07:19:02;;;;;;;5.17;3.37;;;;;;;4.89;50.10;99448.16;8347075;28;20049;-71
2022/03/11 07:23:04;;;;;;;6.27;3.53;;;;;;;5.27;49.73;99449.72;8358717;28;20489;-71
2022/03/11 07:27:05;;;;;;;3.93;3.57;;;;;;;5.59;48.46;99465.75;8344561;28;20525;-71
2022/03/11 07:31:07;;;;;;;4.97;3.93;;;;;;;5.91;47.85;99457.66;8365423;28;20067;-71
2022/03/11 07:35:09;;;;;;;5.27;3.80;;;;;;;6.22;47.33;99456.41;8360409;28;20052;-71
2022/03/11 07:39:10;;;;;;;5.13;3.63;;;;;;;6.49;46.05;99459.38;8377641;28;20148;-71
2022/03/11 07:43:13;;;;;;;4.73;3.80;;;;;;;6.78;45.81;99466.59;8378644;28;20044;-71
2022/03/11 07:47:15;;;;;;;5.68;3.75;;;;;;;6.89;45.33;99458.13;8374425;28;20052;-73
2022/03/11 07:51:18;;;;;;;8.60;3.95;;;;;;;7.03;45.45;99454.84;8377233;28;20045;-73
2022/03/11 07:55:22;;;;;;;8.43;4.28;;;;;;;7.16;45.35;99451.53;8379132;28;20045;-73
2022/03/11 07:59:23;;;;;;;7.00;4.20;;;;;;;7.40;44.71;99448.34;8379133;28;20049;-73
2022/03/11 08:03:24;;;;;;;7.50;4.30;;;;;;;7.56;44.51;99445.03;8355895;28;20527;-72
2022/03/11 08:07:27;;;;;;;4.75;3.85;;;;;;;7.80;43.87;99436.59;8380880;28;20076;-72
2022/03/11 08:11:28;;;;;;;5.47;4.03;;;;;;;8.04;43.49;99449.69;8379469;28;20064;-72
2022/03/11 08:15:30;;;;;;;6.63;3.83;;;;;;;8.25;42.77;99445.50;8376998;28;20132;-72
2022/03/11 08:19:32;;;;;;;5.43;4.47;;;;;;;8.54;42.74;99443.13;8364715;28;20684;-72
2022/03/11 08:23:33;;;;;;;12.47;4.23;;;;;;;8.69;41.79;99449.22;8385131;28;20063;-72
2022/03/11 08:27:35;;;;;;;5.70;3.97;;;;;;;8.82;42.00;99442.38;8385127;28;20319;-72
2022/03/11 08:31:37;;;;;;;5.95;4.00;;;;;;;9.02;41.29;99438.13;8381421;28;20053;-72
2022/03/11 08:35:42;;;;;;;5.13;3.85;;;;;;;9.16;40.52;99422.59;8382209;28;20060;-72
2022/03/11 08:40:06;;;;;;;4.55;4.13;;;;;;;9.25;40.83;99403.59;8384072;28;20086;-72
2022/03/11 08:44:07;;;;;;;5.43;4.65;;;;;;;9.37;40.34;99408.81;8366492;28;20425;-72
2022/03/11 08:48:08;;;;;;;5.75;4.20;;;;;;;9.51;39.90;99401.88;8381410;28;20776;-72
2022/03/11 08:52:13;;;;;;;7.90;4.57;;;;;;;9.63;39.39;99411.41;8384503;28;20623;-72
2022/03/11 08:56:15;;;;;;;4.60;4.20;;;;;;;9.80;39.68;99434.72;8381618;28;20048;-72
2022/03/11 09:00:19;;;;;;;9.40;4.65;;;;;;;9.86;39.70;99435.56;8381287;28;20520;-74
2022/03/11 09:04:21;;;;;;;8.85;4.45;;;;;;;9.99;39.75;99446.81;8375854;28;20056;-72
2022/03/11 09:08:23;;;;;;;;;;;;;;;10.10;40.27;99432.09;8377761;28;20063;-72
2022/03/11 09:12:24;;;;;;;5.22;4.25;;;;;;;10.35;39.28;99430.34;8381511;28;19925;-71
2022/03/11 09:16:31;;;;;;;5.22;4.35;;;;;;;10.62;38.52;99420.75;8358788;28;20152;-71
2022/03/11 09:20:34;;;;;;;5.90;4.63;;;;;;;10.80;38.30;99428.44;8365549;28;20148;-72
2022/03/11 09:24:42;;;;;;;6.32;5.13;;;;;;;10.96;38.56;99424.91;8382522;28;20091;-71
2022/03/11 09:28:43;;;;;;;4.88;4.38;;;;;;;11.34;37.88;99418.59;8380772;28;20056;-71
2022/03/11 09:32:45;;;;;;;5.00;4.53;;;;;;;11.60;37.95;99408.84;8377746;28;20167;-72
2022/03/11 09:36:46;;;;;;;9.07;4.50;;;;;;;11.97;36.51;99414.63;8363149;28;20440;-71
2022/03/11 09:40:50;;;;;;;5.15;4.68;;;;;;;12.17;36.04;99413.53;8364524;28;20048;-72
2022/03/11 09:44:54;;;;;;;6.65;5.00;;;;;;;12.28;35.77;99402.16;8382649;28;20136;-72
2022/03/11 09:48:57;;;;;;;6.22;5.32;;;;;;;12.39;35.87;99371.66;8360067;28;20052;-72
2022/03/11 09:53:02;;;;;;;6.28;5.38;;;;;;;12.50;35.25;99368.91;8378828;28;20125;-72
2022/03/11 09:57:04;;;;;;;7.80;6.07;;;;;;;12.39;35.21;99362.97;8363280;28;20616;-72
2022/03/11 10:01:06;;;;;;;7.37;5.30;;;;;;;12.33;35.10;99358.69;8378515;28;20048;-72
2022/03/11 10:05:08;;;;;;;6.18;5.45;;;;;;;12.29;35.67;99364.81;8381402;28;20045;-72
2022/03/11 10:09:23;;;;;;;6.13;5.38;;;;;;;12.33;36.12;99361.28;8365601;28;20052;-72
2022/03/11 10:13:36;;;;;;;6.95;5.25;;;;;;;12.54;36.17;99362.75;8382091;28;20356;-72
2022/03/11 10:17:38;;;;;;;10.77;5.95;;;;;;;12.68;35.87;99359.97;8370002;28;20073;-72
2022/03/11 10:21:43;;;;;;;5.82;5.25;;;;;;;12.85;35.23;99354.53;8362803;28;20079;-72
2022/03/11 10:25:51;;;;;;;7.38;6.07;;;;;;;12.97;35.39;99341.34;8360140;28;20139;-72
2022/03/11 10:30:01;;;;;;;6.40;5.63;;;;;;;13.02;34.78;99342.13;8357010;28;20052;-72
2022/03/11 10:34:21;;;;;;;6.82;5.55;;;;;;;13.26;35.09;99338.31;8357054;28;20040;-72
2022/03/11 10:38:34;;;;;;;9.27;6.72;;;;;;;13.38;34.89;99324.22;8356011;28;20060;-72
2022/03/11 10:42:36;;;;;;;12.18;6.75;;;;;;;13.47;34.82;99309.28;8355391;28;20044;-72
2022/03/11 10:46:38;;;;;;;11.77;6.53;;;;;;;13.63;34.10;99315.06;8354817;28;20156;-72
2022/03/11 10:50:40;;;;;;;8.82;5.97;;;;;;;13.77;34.61;99312.22;8355435;28;20164;-72
2022/03/11 10:54:43;;;;;;;10.27;6.10;;;;;;;13.95;33.98;99306.63;8361717;28;20523;-72
2022/03/11 10:58:44;;;;;;;;;;;;;;;14.07;34.72;99300.31;8378240;28;20164;-72
2022/03/11 11:02:47;;;;;;;8.27;5.97;;;;;;;14.22;33.76;99289.56;8377709;28;20522;-72
2022/03/11 11:06:49;;;;;;;9.35;6.20;;;;;;;14.29;34.07;99282.47;8360625;28;20058;-72
2022/03/11 11:10:51;;;;;;;7.13;6.13;;;;;;;14.48;33.47;99282.06;8376461;28;20067;-72
2022/03/11 11:14:52;;;;;;;9.13;5.82;;;;;;;14.71;33.62;99278.06;8379847;28;20052;-73
2022/03/11 11:18:58;;;;;;;8.60;6.33;;;;;;;14.97;32.96;99262.63;8375162;28;20156;-72
2022/03/11 11:23:05;;;;;;;9.70;6.40;;;;;;;15.15;32.39;99252.63;8379891;28;20105;-72
2022/03/11 11:27:08;;;;;;;9.02;5.85;;;;;;;15.31;32.02;99251.34;8357543;28;20048;-73
2022/03/11 11:31:10;;;;;;;8.98;6.38;;;;;;;15.50;31.81;99243.88;8372427;28;20056;-74
2022/03/11 11:35:30;;;;;;;8.07;6.40;;;;;;;15.75;31.71;99238.84;8361650;28;20076;-72
2022/03/11 11:39:37;;;;;;;7.55;6.30;;;;;;;16.02;30.69;99232.84;8351347;28;20449;-73
2022/03/11 11:43:51;;;;;;;7.75;6.65;;;;;;;16.04;30.14;99225.78;8345502;28;20132;-72
2022/03/11 11:47:53;;;;;;;8.32;6.28;;;;;;;16.08;30.27;99214.31;8344952;28;20495;-72
2022/03/11 11:51:56;;;;;;;7.93;6.17;;;;;;;16.27;30.07;99198.91;8348310;28;20148;-72
2022/03/11 11:55:59;;;;;;;13.27;6.53;;;;;;;16.38;29.24;99195.97;8352281;28;20124;-72
2022/03/11 12:00:05;;;;;;;10.32;6.15;;;;;;;16.45;29.70;99184.38;8335566;28;20518;-72
2022/03/11 12:04:19;;;;;;;8.90;5.60;;;;;;;16.73;29.47;99180.00;8344175;28;20057;-72
2022/03/11 12:08:39;;;;;;;7.80;5.72;;;;;;;16.87;28.93;99174.28;8353506;28;20057;-72
2022/03/11 12:12:44;;;;;;;5.97;5.38;;;;;;;16.97;28.30;99167.81;8346698;28;20583;-73
2022/03/11 12:17:12;;;;;;;7.32;6.15;;;;;;;17.13;28.62;99155.03;8342788;28;20143;-72
2022/03/11 12:21:37;;;;;;;10.45;6.15;;;;;;;17.34;27.21;99156.91;8344003;28;20049;-72
2022/03/11 12:25:45;;;;;;;6.68;5.40;;;;;;;17.42;27.84;99135.66;8342029;28;20851;-72
2022/03/11 12:29:47;;;;;;;7.70;5.45;;;;;;;17.40;27.39;99130.44;8333899;28;20495;-72
2022/03/11 12:33:49;;;;;;;6.90;6.13;;;;;;;17.42;27.71;99143.53;8347826;28;20627;-72
2022/03/11 12:37:51;;;;;;;9.63;6.10;;;;;;;17.57;27.25;99137.69;8359392;28;20155;-72
2022/03/11 12:41:53;;;;;;;8.90;6.27;;;;;;;17.58;26.97;99128.91;8341809;28;20147;-72
2022/03/11 12:45:55;;;;;;;8.00;6.32;;;;;;;17.64;26.75;99112.94;8328544;28;20632;-72
2022/03/11 12:50:01;;;;;;;7.82;6.32;;;;;;;17.64;27.06;99109.44;8340118;28;20140;-72
2022/03/11 12:54:14;;;;;;;9.15;7.18;;;;;;;17.67;26.54;99109.34;8357589;28;20061;-72
2022/03/11 12:58:31;;;;;;;8.32;7.22;;;;;;;17.65;27.07;99105.91;8335114;28;20060;-72
2022/03/11 13:02:33;;;;;;;7.57;6.55;;;;;;;17.76;27.31;99104.59;8337444;28;20044;-72
2022/03/11 13:06:34;;;;;;;13.35;7.45;;;;;;;17.82;27.04;99103.53;8350632;28;20049;-73
2022/03/11 13:10:37;;;;;;;7.83;7.03;;;;;;;17.84;25.99;99090.34;8352337;28;20056;-72
2022/03/11 13:14:38;;;;;;;11.02;7.28;;;;;;;17.77;25.50;99085.34;8338538;28;20084;-72
2022/03/11 13:18:43;;;;;;;8.23;6.30;;;;;;;17.59;25.88;99082.50;8319851;28;20064;-72
2022/03/11 13:22:50;;;;;;;8.63;6.78;;;;;;;17.66;26.34;99081.38;8324014;28;20128;-72
2022/03/11 13:27:05;;;;;;;8.18;6.05;;;;;;;17.64;25.97;99088.44;8324741;28;20455;-73
2022/03/11 13:31:11;;;;;;;10.88;6.95;;;;;;;17.48;25.84;99081.16;8319167;28;20180;-72
2022/03/11 13:35:26;;;;;;;14.13;7.45;;;;;;;17.19;25.46;99076.09;8352387;28;20426;-76
2022/03/11 13:39:27;;;;;;;7.72;6.93;;;;;;;17.22;26.63;99079.47;8383083;28;20139;-71
2022/03/11 13:43:29;;;;;;;10.37;6.90;;;;;;;17.10;26.16;99076.44;8367846;28;20048;-73
2022/03/11 13:47:30;;;;;;;11.17;6.43;;;;;;;17.03;26.18;99081.03;8370747;28;20820;-73
2022/03/11 13:51:44;;;;;;;9.95;7.25;;;;;;;16.96;26.71;99082.19;8363729;28;20138;-72
2022/03/11 13:55:46;;;;;;;10.70;6.93;;;;;;;16.75;26.62;99085.56;8374790;28;20054;-72
2022/03/11 13:59:54;;;;;;;8.40;6.80;;;;;;;16.62;26.47;99087.69;8361389;28;20056;-72
2022/03/11 14:03:55;;;;;;;9.20;6.72;;;;;;;16.44;26.71;99081.28;8361273;28;20355;-72
2022/03/11 14:08:01;;;;;;;9.20;6.95;;;;;;;16.34;27.57;99072.03;8375513;28;20536;-71
2022/03/11 14:12:03;;;;;;;7.80;6.03;;;;;;;16.33;26.72;99070.31;8356779;28;20058;-71
2022/03/11 14:16:08;;;;;;;8.35;6.32;;;;;;;16.33;27.37;99067.69;8379540;28;20063;-71
2022/03/11 14:20:12;;;;;;;10.05;7.10;;;;;;;16.31;27.34;99069.50;8367331;28;20053;-72
2022/03/11 14:24:13;;;;;;;7.95;6.40;;;;;;;16.19;26.49;99062.91;8358638;28;20044;-71
2022/03/11 14:28:17;;;;;;;9.15;6.85;;;;;;;16.07;26.42;99062.44;8363786;28;20143;-71
2022/03/11 14:32:19;;;;;;;8.07;7.18;;;;;;;15.99;26.89;99076.66;8377319;28;20056;-71
2022/03/11 14:36:20;;;;;;;8.27;6.72;;;;;;;15.90;26.61;99066.44;8374032;28;20773;-71
2022/03/11 14:40:22;;;;;;;11.00;7.50;;;;;;;15.87;27.35;99060.47;8359886;28;20139;-70
2022/03/11 14:44:25;;;;;;;10.20;6.82;;;;;;;15.86;27.61;99061.38;8374841;28;20131;-71
2022/03/11 14:48:27;;;;;;;10.60;7.28;;;;;;;15.84;27.65;99057.94;8375836;28;20151;-71
2022/03/11 14:52:29;;;;;;;8.65;7.32;;;;;;;15.84;27.81;99055.31;8349418;28;20059;-71
2022/03/11 14:56:31;;;;;;;9.98;7.22;;;;;;;15.76;27.50;99070.38;8366710;28;20053;-72
2022/03/11 15:00:33;;;;;;;10.45;7.05;;;;;;;15.73;27.38;99055.63;8370434;28;20357;-71
2022/03/11 15:04:35;;;;;;;9.65;7.32;;;;;;;15.73;27.55;99053.03;8367132;28;20561;-71
2022/03/11 15:08:36;;;;;;;12.82;7.32;;;;;;;15.70;27.77;99051.34;8361282;28;20051;-71
2022/03/11 15:12:38;;;;;;;8.83;6.63;;;;;;;15.70;27.52;99045.28;8367375;28;20501;-71
2022/03/11 15:16:39;;;;;;;9.00;7.10;;;;;;;15.61;27.55;99049.00;8365176;28;20080;-72
2022/03/11 15:20:41;;;;;;;7.37;6.23;;;;;;;15.60;28.13;99036.81;8367924;28;20102;-71
2022/03/11 15:24:43;;;;;;;13.98;6.32;;;;;;;15.57;27.63;99041.28;8366839;28;20051;-71
2022/03/11 15:28:47;;;;;;;8.43;6.45;;;;;;;15.39;27.43;99037.44;8361900;28;20143;-72
2022/03/11 15:32:51;;;;;;;8.82;6.15;;;;;;;15.25;28.23;99032.59;8374836;28;20151;-71
2022/03/11 15:36:53;;;;;;;8.52;6.03;;;;;;;15.23;28.19;99031.78;8356227;28;20092;-71
2022/03/11 15:40:55;;;;;;;9.55;6.18;;;;;;;15.24;28.34;99027.44;8373415;28;20484;-71
2022/03/11 15:44:56;;;;;;;10.43;6.50;;;;;;;15.31;28.88;99034.22;8373380;28;20135;-71
2022/03/11 15:48:58;;;;;;;8.80;5.60;;;;;;;15.34;27.94;99029.75;8372578;28;20048;-71
2022/03/11 15:52:59;;;;;;;7.33;5.67;;;;;;;15.82;28.15;99026.56;8373982;28;20133;-71
2022/03/11 15:57:01;;;;;;;7.13;6.40;;;;;;;15.80;27.48;99030.13;8379810;28;20040;-71
2022/03/11 16:01:03;;;;;;;7.73;5.87;;;;;;;15.49;28.00;99022.34;8356108;28;20480;-71
2022/03/11 16:05:05;;;;;;;;;;;;;;;15.17;28.63;99016.28;8374163;28;20502;-71
2022/03/11 16:09:07;;;;;;;5.95;4.82;;;;;;;15.07;28.80;99015.69;8374210;28;20598;-71
2022/03/11 16:13:08;;;;;;;7.93;5.38;;;;;;;14.98;28.63;99010.72;8354527;28;20048;-71
2022/03/11 16:17:14;;;;;;;11.30;6.07;;;;;;;14.93;27.80;99027.47;8374975;28;20048;-71
2022/03/11 16:21:16;;;;;;;6.93;5.30;;;;;;;15.01;28.27;99017.63;8358097;28;20540;-71
2022/03/11 16:25:18;;;;;;;7.72;5.88;;;;;;;14.92;28.20;99024.00;8383895;28;20412;-71
2022/03/11 16:29:39;;;;;;;7.10;5.10;;;;;;;14.82;28.46;99018.16;8360735;28;20078;-71
2022/03/11 16:33:40;;;;;;;8.00;5.32;;;;;;;14.97;28.35;99016.88;8378732;28;20060;-71
2022/03/11 16:37:42;;;;;;;7.88;6.57;;;;;;;14.93;28.78;99028.31;8372107;28;20086;-71
2022/03/11 16:41:43;;;;;;;8.10;6.72;;;;;;;14.77;28.62;99022.66;8362046;28;20084;-71
2022/03/11 16:45:45;;;;;;;8.15;5.63;;;;;;;14.57;29.31;99030.16;8376468;28;20160;-72
2022/03/11 16:49:48;;;;;;;8.15;5.32;;;;;;;14.34;29.36;99035.06;8374469;28;20149;-71
2022/03/11 16:53:49;;;;;;;7.97;6.18;;;;;;;14.17;29.09;99035.50;8375906;28;20052;-71
2022/03/11 16:57:51;;;;;;;6.90;5.30;;;;;;;13.98;29.81;99039.44;8374537;28;20074;-71
2022/03/11 17:01:52;;;;;;;8.43;4.60;;;;;;;13.81;30.31;99038.09;8373724;28;20136;-71
2022/03/11 17:05:54;;;;;;;7.25;5.28;;;;;;;13.66;30.68;99046.28;8369767;28;20123;-71
2022/03/11 17:09:58;;;;;;;5.50;4.80;;;;;;;13.51;30.95;99044.88;8378495;28;20052;-71
2022/03/11 17:14:00;;;;;;;9.10;5.57;;;;;;;13.37;31.42;99054.75;8358179;28;20052;-71
2022/03/11 17:18:01;;;;;;;7.57;5.72;;;;;;;13.20;31.98;99044.66;8375875;28;20041;-71
2022/03/11 17:22:03;;;;;;;9.52;6.60;;;;;;;13.02;32.36;99052.81;8375656;28;20151;-71
2022/03/11 17:26:04;;;;;;;7.28;5.10;;;;;;;12.84;32.72;99059.25;8373654;28;20762;-71
2022/03/11 17:30:07;;;;;;;8.00;6.63;;;;;;;12.69;33.20;99067.34;8371802;28;20048;-71
2022/03/11 17:34:09;;;;;;;12.18;6.15;;;;;;;12.53;33.48;99071.09;8338480;28;20142;-71
2022/03/11 17:38:12;;;;;;;6.70;5.13;;;;;;;12.33;33.88;99074.03;8347027;28;20143;-71
2022/03/11 17:42:14;;;;;;;7.00;5.50;;;;;;;12.20;34.26;99070.75;8341757;28;20405;-71
2022/03/11 17:46:16;;;;;;;8.03;5.00;;;;;;;12.05;34.11;99071.91;8328902;28;20763;-71
2022/03/11 17:50:18;;;;;;;7.07;4.70;;;;;;;11.92;34.43;99072.09;8346185;28;20053;-71
2022/03/11 17:54:19;;;;;;;6.65;5.13;;;;;;;11.77;34.52;99089.59;8316962;28;20060;-70
2022/03/11 17:58:22;;;;;;;5.95;4.97;;;;;;;11.67;34.51;99101.03;8339590;28;20140;-70
2022/03/11 18:02:23;;;;;;;;;;;;;;;11.56;34.76;99089.06;8346050;28;20057;-71
2022/03/11 18:06:28;;;;;;;8.13;5.32;;;;;;;11.43;34.66;99094.41;8338192;28;20029;-70
2022/03/11 18:10:30;;;;;;;12.43;6.28;;;;;;;11.31;34.91;99086.78;8345554;28;20051;-71
2022/03/11 18:14:31;;;;;;;5.50;4.72;;;;;;;11.20;35.03;99096.44;8326900;28;20045;-71
2022/03/11 18:18:33;;;;;;;6.73;5.17;;;;;;;11.10;35.42;99093.06;8335448;28;20048;-71
2022/03/11 18:22:35;;;;;;;7.95;5.80;;;;;;;10.99;35.11;99094.94;8324565;28;20732;-71
2022/03/11 18:26:36;;;;;;;5.82;4.47;;;;;;;10.89;35.59;99101.94;8342939;28;20063;-70
2022/03/11 18:30:38;;;;;;;5.13;4.20;;;;;;;10.83;35.39;99101.16;8316489;28;20052;-70
2022/03/11 18:34:41;;;;;;;10.10;4.80;;;;;;;10.73;35.85;99104.72;8342286;28;20052;-70
2022/03/11 18:38:43;;;;;;;9.90;5.28;;;;;;;10.65;36.26;99096.16;8344236;28;20059;-70
2022/03/11 18:42:45;;;;;;;7.28;5.00;;;;;;;10.53;36.96;99095.38;8360437;28;20048;-70
2022/03/11 18:46:47;;;;;;;5.85;4.50;;;;;;;10.42;37.08;99107.59;8360512;28;20052;-70
2022/03/11 18:50:49;;;;;;;5.13;4.63;;;;;;;10.34;36.81;99108.53;8359576;28;20057;-70
2022/03/11 18:54:51;;;;;;;7.57;5.05;;;;;;;10.28;36.99;99114.63;8344392;28;20052;-70
2022/03/11 18:58:56;;;;;;;7.00;5.83;;;;;;;10.20;37.71;99116.38;8360501;28;20064;-70
2022/03/11 19:03:01;;;;;;;5.65;4.75;;;;;;;10.09;38.00;99113.03;8339404;28;20155;-70
2022/03/11 19:07:05;;;;;;;7.70;5.60;;;;;;;10.01;38.37;99110.47;8359542;28;20319;-70
2022/03/11 19:11:07;;;;;;;7.03;4.65;;;;;;;9.85;38.42;99109.69;8361963;28;20048;-71